Time;durP1;ratioP1;P1;durP2;ratioP2;P2;SDS_P1;SDS_P2;PMS_P1;PMS_P2;Temp;Humidity;BMP_temperature;BMP_pressure;BME280_temperature;BME280_humidity;BME280_pressure;Samples;Min_cycle;Max_cycle;Signal;HPM_P1;HPM_P2
2023/05/05 00:01:38;;;;;;;10.57;4.15;;;11.30;99.90;;;;;;4942089;28;20038;-66
2023/05/05 00:04:04;;;;;;;8.82;4.00;;;11.30;99.90;;;;;;4987155;28;20045;-67
2023/05/05 00:06:30;;;;;;;8.85;3.67;;;11.20;99.90;;;;;;4973743;28;20140;-66
2023/05/05 00:08:56;;;;;;;10.07;3.95;;;11.20;99.90;;;;;;4971871;28;20050;-65
2023/05/05 00:11:22;;;;;;;9.15;3.53;;;11.10;99.90;;;;;;4956365;28;20046;-66
2023/05/05 00:13:48;;;;;;;10.32;4.05;;;11.20;99.90;;;;;;4955556;28;20053;-66
2023/05/05 00:16:13;;;;;;;8.63;3.80;;;11.10;99.90;;;;;;4956355;28;20054;-65
2023/05/05 00:18:39;;;;;;;7.13;3.85;;;11.00;99.90;;;;;;4955770;28;20042;-66
2023/05/05 00:21:05;;;;;;;8.15;4.30;;;11.00;99.90;;;;;;4988971;28;20590;-65
2023/05/05 00:23:31;;;;;;;14.20;4.20;;;11.00;99.90;;;;;;4988364;28;20130;-66
2023/05/05 00:25:56;;;;;;;11.18;5.25;;;11.00;99.90;;;;;;4940449;28;20692;-65
2023/05/05 00:28:22;;;;;;;9.05;4.70;;;11.00;99.90;;;;;;4942626;28;20441;-65
2023/05/05 00:30:48;;;;;;;10.85;4.82;;;10.90;99.90;;;;;;4957080;28;20129;-66
2023/05/05 00:33:14;;;;;;;12.52;5.07;;;10.80;99.90;;;;;;4958619;28;20049;-65
2023/05/05 00:35:39;;;;;;;10.05;4.43;;;10.80;99.90;;;;;;4975114;28;20090;-66
2023/05/05 00:38:06;;;;;;;11.48;4.50;;;10.70;99.90;;;;;;4957072;28;20038;-66
2023/05/05 00:40:31;;;;;;;10.50;4.60;;;10.70;99.90;;;;;;4956326;28;20042;-66
2023/05/05 00:42:58;;;;;;;10.68;4.72;;;10.70;99.90;;;;;;4971443;28;20042;-65
2023/05/05 00:45:24;;;;;;;9.98;4.60;;;10.60;99.90;;;;;;4987631;28;20889;-65
2023/05/05 00:47:52;;;;;;;8.65;4.88;;;10.60;99.90;;;;;;4956145;28;20041;-66
2023/05/05 00:50:23;;;;;;;10.13;4.65;;;10.50;99.90;;;;;;4971168;28;20063;-65
2023/05/05 00:52:51;;;;;;;13.07;4.88;;;10.50;99.90;;;;;;4987223;28;21028;-66
2023/05/05 00:55:18;;;;;;;12.25;4.55;;;10.50;99.90;;;;;;4972540;28;20053;-66
2023/05/05 00:57:44;;;;;;;8.57;4.57;;;10.50;99.90;;;;;;4958933;28;20035;-66
2023/05/05 01:00:10;;;;;;;11.55;4.95;;;10.40;99.90;;;;;;4987559;28;20039;-66
2023/05/05 01:02:37;;;;;;;10.90;4.93;;;10.40;99.90;;;;;;4957139;28;20046;-67
2023/05/05 01:05:03;;;;;;;10.82;4.88;;;10.50;99.90;;;;;;4956294;28;20082;-66
2023/05/05 01:08:08;;;;;;;9.95;4.47;;;10.50;99.90;;;;;;4987663;28;20046;-65
2023/05/05 01:10:45;;;;;;;9.77;4.13;;;10.50;99.90;;;;;;4981607;28;20046;-65
2023/05/05 01:13:25;;;;;;;8.23;4.63;;;10.50;99.90;;;;;;4987215;28;20064;-66
2023/05/05 01:15:54;;;;;;;6.75;2.78;;;10.50;99.90;;;;;;4955614;28;20153;-65
2023/05/05 01:18:32;;;;;;;10.27;4.40;;;10.50;99.90;;;;;;4971697;28;20053;-65
2023/05/05 01:21:12;;;;;;;8.80;4.22;;;10.50;99.90;;;;;;4955950;28;20540;-65
2023/05/05 01:23:55;;;;;;;13.45;4.68;;;10.40;99.90;;;;;;4986740;28;20058;-65
2023/05/05 01:26:46;;;;;;;8.68;3.88;;;10.40;99.90;;;;;;4954455;28;20062;-66
2023/05/05 01:29:31;;;;;;;5.90;3.13;;;10.40;99.90;;;;;;4954649;28;20203;-66
2023/05/05 01:32:03;;;;;;;8.15;3.92;;;10.40;99.90;;;;;;4969926;28;20042;-65
2023/05/05 01:34:37;;;;;;;11.25;3.97;;;10.40;99.90;;;;;;4955840;28;20085;-65
2023/05/05 01:37:25;;;;;;;8.45;3.95;;;10.40;99.90;;;;;;4987557;28;20081;-65
2023/05/05 01:39:57;;;;;;;8.43;3.67;;;10.30;99.90;;;;;;4954558;28;20086;-65
2023/05/05 01:42:24;;;;;;;6.38;3.05;;;10.30;99.90;;;;;;4986286;28;20424;-66
2023/05/05 01:44:52;;;;;;;9.27;3.92;;;10.30;99.90;;;;;;4941325;28;20759;-66
2023/05/05 01:47:20;;;;;;;12.52;4.20;;;10.30;99.90;;;;;;4953611;28;20129;-67
2023/05/05 01:49:47;;;;;;;6.55;3.67;;;10.30;99.90;;;;;;4956659;28;20686;-66
2023/05/05 01:52:17;;;;;;;10.90;3.90;;;10.30;99.90;;;;;;4986263;28;20164;-65
2023/05/05 01:54:48;;;;;;;9.02;3.38;;;10.20;99.90;;;;;;4986511;28;20066;-66
2023/05/05 01:57:15;;;;;;;10.93;4.47;;;10.20;99.90;;;;;;4986739;28;20050;-67
2023/05/05 01:59:41;;;;;;;14.32;4.28;;;10.10;99.90;;;;;;4987037;28;20039;-66
2023/05/05 02:02:10;;;;;;;12.30;4.40;;;10.20;99.90;;;;;;4955746;28;20746;-66
2023/05/05 02:04:40;;;;;;;8.35;4.00;;;10.20;99.90;;;;;;4988648;28;20506;-66
2023/05/05 02:07:07;;;;;;;5.90;3.17;;;10.20;99.90;;;;;;4955539;28;20051;-66
2023/05/05 02:09:33;;;;;;;8.70;3.78;;;10.20;99.90;;;;;;4986357;28;20047;-65
2023/05/05 02:12:01;;;;;;;8.45;3.10;;;10.20;99.90;;;;;;4954777;28;20065;-65
2023/05/05 02:14:29;;;;;;;7.93;2.83;;;10.20;99.90;;;;;;4972060;28;20049;-68
2023/05/05 02:16:56;;;;;;;10.27;3.75;;;10.30;99.90;;;;;;4954624;28;20055;-66
2023/05/05 02:19:28;;;;;;;6.75;3.38;;;10.30;99.90;;;;;;4954557;28;20038;-65
2023/05/05 02:21:54;;;;;;;6.93;3.47;;;10.20;99.90;;;;;;4984830;28;20050;-65
2023/05/05 02:24:20;;;;;;;9.48;3.40;;;10.10;99.90;;;;;;4952957;28;20053;-66
2023/05/05 02:26:49;;;;;;;8.32;3.53;;;10.10;99.90;;;;;;4955891;28;20577;-65
2023/05/05 02:29:21;;;;;;;8.40;3.22;;;10.10;99.90;;;;;;4972618;28;20157;-65
2023/05/05 02:31:51;;;;;;;11.27;3.95;;;10.00;99.90;;;;;;4964941;28;20053;-66
2023/05/05 02:34:22;;;;;;;8.63;2.45;;;10.00;99.90;;;;;;4989198;28;20514;-66
2023/05/05 02:36:52;;;;;;;9.25;3.38;;;10.10;99.90;;;;;;4954494;28;20050;-66
2023/05/05 02:39:24;;;;;;;7.15;3.53;;;10.00;99.90;;;;;;4986655;28;20053;-65
2023/05/05 02:41:53;;;;;;;9.13;3.80;;;10.10;99.90;;;;;;4954393;28;20470;-66
2023/05/05 02:44:20;;;;;;;7.15;3.55;;;10.10;99.90;;;;;;4958375;28;20047;-65
2023/05/05 02:46:46;;;;;;;9.15;3.55;;;10.10;99.90;;;;;;4957833;28;20046;-66
2023/05/05 02:49:13;;;;;;;8.27;3.70;;;10.00;99.90;;;;;;4960178;28;20684;-66
2023/05/05 02:51:39;;;;;;;7.88;3.55;;;10.00;99.90;;;;;;4959935;28;20854;-65
2023/05/05 02:54:05;;;;;;;12.57;3.65;;;10.00;99.90;;;;;;4959863;28;20049;-66
2023/05/05 02:56:50;;;;;;;9.05;3.78;;;10.00;99.90;;;;;;4956680;28;20046;-65
2023/05/05 02:59:23;;;;;;;12.68;3.80;;;10.00;99.90;;;;;;4989069;28;20074;-67
2023/05/05 03:02:12;;;;;;;8.45;3.67;;;10.00;99.90;;;;;;4959099;28;20045;-65
2023/05/05 03:04:45;;;;;;;6.57;3.08;;;10.10;99.90;;;;;;4959266;28;20681;-65
2023/05/05 03:07:43;;;;;;;5.15;2.03;;;10.10;99.90;;;;;;4972889;28;20165;-65
2023/05/05 03:10:12;;;;;;;6.85;2.38;;;10.20;99.90;;;;;;4952258;28;20707;-67
2023/05/05 03:13:01;;;;;;;8.68;2.28;;;10.20;99.90;;;;;;4955418;28;20043;-65
2023/05/05 03:15:31;;;;;;;5.82;2.30;;;10.30;99.90;;;;;;4946627;28;20145;-65
2023/05/05 03:17:59;;;;;;;9.32;2.75;;;10.30;99.90;;;;;;4955526;28;20519;-65
2023/05/05 03:20:25;;;;;;;7.10;3.17;;;10.30;99.90;;;;;;4957238;28;20081;-66
2023/05/05 03:22:51;;;;;;;6.88;2.90;;;10.20;99.90;;;;;;4942197;28;20573;-66
2023/05/05 03:25:17;;;;;;;5.45;2.33;;;10.20;99.90;;;;;;4987981;28;20066;-65
2023/05/05 03:27:42;;;;;;;4.63;2.45;;;10.20;99.90;;;;;;4957637;28;20057;-67
2023/05/05 03:30:09;;;;;;;5.97;2.88;;;10.20;99.90;;;;;;4973560;28;20046;-64
2023/05/05 03:32:34;;;;;;;3.83;1.65;;;10.20;99.90;;;;;;4956130;28;20045;-66
2023/05/05 03:35:00;;;;;;;6.85;2.90;;;10.20;99.90;;;;;;4937686;28;20042;-65
2023/05/05 03:37:25;;;;;;;7.45;2.88;;;10.10;99.90;;;;;;4973553;28;20038;-65
2023/05/05 03:39:51;;;;;;;6.13;3.05;;;10.10;99.90;;;;;;4936066;28;21328;-65
2023/05/05 03:42:17;;;;;;;8.50;3.30;;;10.10;99.90;;;;;;4958152;28;20038;-65
2023/05/05 03:44:43;;;;;;;8.20;3.25;;;10.00;99.90;;;;;;4958359;28;20100;-66
2023/05/05 03:47:08;;;;;;;6.70;2.80;;;10.00;99.90;;;;;;4990352;28;20145;-65
2023/05/05 03:49:34;;;;;;;7.25;3.10;;;10.00;99.90;;;;;;4988390;28;20042;-68
2023/05/05 03:52:00;;;;;;;6.55;2.97;;;10.00;99.90;;;;;;4958868;28;20658;-65
2023/05/05 03:54:26;;;;;;;4.53;2.28;;;10.00;99.90;;;;;;4957009;28;20035;-66
2023/05/05 03:56:52;;;;;;;6.63;2.70;;;10.00;99.90;;;;;;4956958;28;20093;-65
2023/05/05 03:59:17;;;;;;;6.10;2.72;;;9.90;99.90;;;;;;4957193;28;20042;-65
2023/05/05 04:01:45;;;;;;;4.70;1.52;;;9.90;99.90;;;;;;4973448;28;20053;-66
2023/05/05 04:04:11;;;;;;;7.55;2.42;;;9.90;99.90;;;;;;4990023;28;20797;-66
2023/05/05 04:06:36;;;;;;;5.65;2.33;;;9.90;99.90;;;;;;4956411;28;20098;-65
2023/05/05 04:09:02;;;;;;;7.95;3.08;;;9.90;99.90;;;;;;4940300;28;20113;-65
2023/05/05 04:11:28;;;;;;;4.38;2.03;;;9.90;99.90;;;;;;4955483;28;20042;-65
2023/05/05 04:13:53;;;;;;;8.20;4.15;;;9.90;99.90;;;;;;4955730;28;20090;-65
2023/05/05 04:16:19;;;;;;;7.53;3.22;;;9.90;99.90;;;;;;4943575;28;20058;-68
2023/05/05 04:18:46;;;;;;;9.68;3.60;;;9.90;99.90;;;;;;4953134;28;20069;-65
2023/05/05 04:21:12;;;;;;;10.38;3.75;;;10.00;99.90;;;;;;4968023;28;20470;-65
2023/05/05 04:23:37;;;;;;;7.40;3.78;;;10.00;99.90;;;;;;4983750;28;20126;-65
2023/05/05 04:26:03;;;;;;;7.97;3.15;;;10.00;99.90;;;;;;4968393;28;20090;-65
2023/05/05 04:28:29;;;;;;;5.78;2.65;;;10.00;99.90;;;;;;4950513;28;20046;-65
2023/05/05 04:30:54;;;;;;;8.35;3.20;;;10.10;99.90;;;;;;4963247;28;20049;-66
2023/05/05 04:33:20;;;;;;;5.75;2.75;;;10.10;99.90;;;;;;4969139;28;20073;-65
2023/05/05 04:35:46;;;;;;;6.68;3.28;;;10.20;99.90;;;;;;4946615;28;20477;-65
2023/05/05 04:38:11;;;;;;;5.57;2.75;;;10.20;99.90;;;;;;4947076;28;20579;-65
2023/05/05 04:40:39;;;;;;;6.68;3.20;;;10.30;99.90;;;;;;4953932;28;20053;-66
2023/05/05 04:43:05;;;;;;;7.65;3.58;;;10.30;99.90;;;;;;4985068;28;20042;-67
2023/05/05 04:45:31;;;;;;;8.27;3.40;;;10.40;99.90;;;;;;4969916;28;20046;-66
2023/05/05 04:47:57;;;;;;;6.60;3.10;;;10.40;99.90;;;;;;4950662;28;20101;-67
2023/05/05 04:50:22;;;;;;;8.18;3.63;;;10.50;99.90;;;;;;4955363;28;20061;-66
2023/05/05 04:52:48;;;;;;;9.85;4.00;;;10.50;99.90;;;;;;4922064;28;20073;-68
2023/05/05 04:55:14;;;;;;;9.07;4.18;;;10.50;99.90;;;;;;4954302;28;20042;-66
2023/05/05 04:57:40;;;;;;;7.43;4.28;;;10.50;99.90;;;;;;4939389;28;20664;-66
2023/05/05 05:00:06;;;;;;;6.07;2.30;;;10.50;99.90;;;;;;4940114;28;20046;-67
2023/05/05 05:02:32;;;;;;;8.07;3.80;;;10.40;99.90;;;;;;4964797;28;20137;-66
2023/05/05 05:04:58;;;;;;;7.35;3.40;;;10.40;99.90;;;;;;4938131;28;20042;-67
2023/05/05 05:07:24;;;;;;;6.10;3.60;;;10.30;99.90;;;;;;4968400;28;20066;-66
2023/05/05 05:09:50;;;;;;;7.95;3.45;;;10.30;99.90;;;;;;4937551;28;20106;-66
2023/05/05 05:12:16;;;;;;;9.40;3.75;;;10.30;99.90;;;;;;4939768;28;20035;-66
2023/05/05 05:14:41;;;;;;;6.18;2.72;;;10.20;99.90;;;;;;4970526;28;20967;-66
2023/05/05 05:17:08;;;;;;;7.75;3.90;;;10.30;99.90;;;;;;4936044;28;20069;-66
2023/05/05 05:19:33;;;;;;;9.48;3.50;;;10.20;99.90;;;;;;4940001;28;20133;-66
2023/05/05 05:21:59;;;;;;;6.35;3.58;;;10.10;99.90;;;;;;4952889;28;21257;-68
2023/05/05 05:24:25;;;;;;;9.70;4.22;;;10.00;1.00;;;;;;4953429;28;20714;-67
2023/05/05 05:26:51;;;;;;;8.52;3.97;;;9.90;1.00;;;;;;4969385;28;20047;-66
2023/05/05 05:29:17;;;;;;;6.28;4.07;;;9.90;1.00;;;;;;4940484;28;20042;-67
2023/05/05 05:31:42;;;;;;;12.02;4.22;;;9.80;1.00;;;;;;4937526;28;20525;-66
2023/05/05 05:34:08;;;;;;;7.53;4.15;;;9.80;1.00;;;;;;4938583;28;20046;-68
2023/05/05 05:36:34;;;;;;;10.10;4.32;;;9.80;1.00;;;;;;4938032;28;20134;-66
2023/05/05 05:39:00;;;;;;;6.32;3.28;;;9.70;9.30;;;;;;4939071;28;20049;-66
2023/05/05 05:41:25;;;;;;;9.23;3.90;;;9.70;19.80;;;;;;4955245;28;20352;-67
2023/05/05 05:43:51;;;;;;;11.55;4.93;;;9.80;1.00;;;;;;4937730;28;20122;-67
2023/05/05 05:46:18;;;;;;;11.10;4.43;;;9.70;1.00;;;;;;4940410;28;20412;-67
2023/05/05 05:48:43;;;;;;;8.80;3.50;;;9.70;1.00;;;;;;4955802;28;20048;-66
2023/05/05 05:51:09;;;;;;;10.95;3.97;;;9.70;16.20;;;;;;4947819;28;20088;-67
2023/05/05 05:53:35;;;;;;;11.55;4.22;;;9.60;97.50;;;;;;4938155;28;20187;-67
2023/05/05 05:56:00;;;;;;;17.48;6.13;;;9.50;99.90;;;;;;4971340;28;20089;-68
2023/05/05 05:58:26;;;;;;;13.85;4.88;;;9.40;99.90;;;;;;4956492;28;20042;-67
2023/05/05 06:00:52;;;;;;;12.13;5.05;;;9.40;99.90;;;;;;4986847;28;20134;-67
2023/05/05 06:03:17;;;;;;;12.25;4.90;;;9.40;99.90;;;;;;4940243;28;20489;-67
2023/05/05 06:05:46;;;;;;;12.60;4.38;;;9.40;99.90;;;;;;4938723;28;20457;-66
2023/05/05 06:08:12;;;;;;;8.93;4.10;;;9.40;99.90;;;;;;4939542;28;20057;-66
2023/05/05 06:10:38;;;;;;;8.02;3.15;;;9.50;99.90;;;;;;4938663;28;20047;-67
2023/05/05 06:13:04;;;;;;;7.57;4.13;;;9.50;99.90;;;;;;4954278;28;20558;-67
2023/05/05 06:15:30;;;;;;;15.63;5.18;;;9.50;99.90;;;;;;4950469;28;20051;-67
2023/05/05 06:17:58;;;;;;;15.52;5.60;;;9.50;99.90;;;;;;4973152;28;20035;-67
2023/05/05 06:20:24;;;;;;;10.60;5.00;;;9.60;99.90;;;;;;4983719;28;20049;-67
2023/05/05 06:22:50;;;;;;;11.45;4.10;;;9.60;99.90;;;;;;4941401;28;20047;-66
2023/05/05 06:25:16;;;;;;;7.82;4.38;;;9.70;99.90;;;;;;4945297;28;20133;-67
2023/05/05 06:27:42;;;;;;;12.52;5.03;;;9.70;99.90;;;;;;4959124;28;20078;-67
2023/05/05 06:30:10;;;;;;;7.28;3.58;;;9.80;99.90;;;;;;4958537;28;20660;-68
2023/05/05 06:32:36;;;;;;;9.20;4.30;;;9.90;99.90;;;;;;4943026;28;20333;-67
2023/05/05 06:35:02;;;;;;;8.80;4.18;;;10.00;99.90;;;;;;4943743;28;20640;-66
2023/05/05 06:37:27;;;;;;;11.23;4.22;;;10.00;99.90;;;;;;4945229;28;20043;-67
2023/05/05 06:39:54;;;;;;;8.55;4.55;;;10.20;99.90;;;;;;4957530;28;20034;-66
2023/05/05 06:42:19;;;;;;;12.18;4.90;;;10.30;99.90;;;;;;4974912;28;20043;-65
2023/05/05 06:44:45;;;;;;;6.60;3.20;;;10.30;99.90;;;;;;4944497;28;20489;-66
2023/05/05 06:47:11;;;;;;;7.13;3.30;;;10.40;99.90;;;;;;4973063;28;20640;-65
2023/05/05 06:49:36;;;;;;;8.48;3.70;;;10.40;99.90;;;;;;4960001;28;21328;-64
2023/05/05 06:52:02;;;;;;;10.43;3.85;;;10.40;99.90;;;;;;4936081;28;20054;-66
2023/05/05 06:54:28;;;;;;;9.32;4.78;;;10.30;99.90;;;;;;4988683;28;20481;-65
2023/05/05 06:56:54;;;;;;;8.40;4.00;;;10.30;99.90;;;;;;4942242;28;20106;-68
2023/05/05 06:59:20;;;;;;;7.68;3.53;;;10.30;75.00;;;;;;4974123;28;20357;-65
2023/05/05 07:01:46;;;;;;;10.10;4.40;;;10.30;99.90;;;;;;4959936;28;20053;-65
2023/05/05 07:04:11;;;;;;;10.07;4.63;;;10.30;99.90;;;;;;4955115;28;20584;-65
2023/05/05 07:06:37;;;;;;;7.07;3.60;;;10.40;44.00;;;;;;4943577;28;20035;-66
2023/05/05 07:09:03;;;;;;;7.75;4.07;;;10.40;1.00;;;;;;4988760;28;20107;-65
2023/05/05 07:11:28;;;;;;;8.00;3.85;;;10.30;1.00;;;;;;4941307;28;20590;-64
2023/05/05 07:13:54;;;;;;;8.60;3.30;;;10.30;1.00;;;;;;4986328;28;20074;-65
2023/05/05 07:16:20;;;;;;;9.07;4.45;;;10.30;1.00;;;;;;4954442;28;20094;-65
2023/05/05 07:18:45;;;;;;;5.43;2.65;;;10.40;1.00;;;;;;4954662;28;20038;-65
2023/05/05 07:21:11;;;;;;;6.82;3.72;;;10.40;1.00;;;;;;4940542;28;20161;-65
2023/05/05 07:23:37;;;;;;;10.38;3.55;;;10.40;1.00;;;;;;4976683;28;20346;-67
2023/05/05 07:26:03;;;;;;;5.55;3.15;;;10.40;1.00;;;;;;4936377;28;20615;-66
2023/05/05 07:28:30;;;;;;;10.13;4.68;;;10.50;1.00;;;;;;4954410;28;20132;-66
2023/05/05 07:30:56;;;;;;;8.57;3.70;;;10.40;1.00;;;;;;4970803;28;20042;-65
2023/05/05 07:33:21;;;;;;;6.88;4.50;;;10.40;1.00;;;;;;4941021;28;20061;-65
2023/05/05 07:35:47;;;;;;;7.47;4.63;;;10.40;1.00;;;;;;4938465;28;20533;-67
2023/05/05 07:38:13;;;;;;;10.00;4.50;;;10.40;1.00;;;;;;4954957;28;20464;-65
2023/05/05 07:40:38;;;;;;;11.75;4.47;;;10.40;1.00;;;;;;4937381;28;20037;-65
2023/05/05 07:43:05;;;;;;;8.57;5.00;;;10.50;29.60;;;;;;4981238;28;20137;-65
2023/05/05 07:45:31;;;;;;;4.15;2.55;;;10.70;1.00;;;;;;4934796;28;20053;-67
2023/05/05 07:47:56;;;;;;;11.18;4.47;;;11.00;1.00;;;;;;4955532;28;20437;-67
2023/05/05 07:50:22;;;;;;;8.80;4.18;;;11.30;1.00;;;;;;4986475;28;20058;-67
2023/05/05 07:52:48;;;;;;;5.63;3.83;;;11.60;1.00;;;;;;4939007;28;20423;-68
2023/05/05 07:55:14;;;;;;;8.10;4.70;;;11.90;99.90;;;;;;4974393;28;20186;-67
2023/05/05 07:57:40;;;;;;;7.30;4.00;;;12.10;99.90;;;;;;4957538;28;20050;-67
2023/05/05 08:00:07;;;;;;;6.93;4.25;;;12.30;99.90;;;;;;4941579;28;20405;-67
2023/05/05 08:02:33;;;;;;;9.07;5.47;;;12.50;99.90;;;;;;4939545;28;20366;-67
2023/05/05 08:04:59;;;;;;;11.05;4.90;;;12.70;99.90;;;;;;4969987;28;20093;-67
2023/05/05 08:07:25;;;;;;;7.93;4.93;;;12.90;99.90;;;;;;4946984;28;20035;-67
2023/05/05 08:09:51;;;;;;;10.60;5.10;;;13.00;99.90;;;;;;4957306;28;20041;-67
2023/05/05 08:12:18;;;;;;;10.23;5.63;;;13.20;99.90;;;;;;4973740;28;20513;-68
2023/05/05 08:14:43;;;;;;;7.60;4.63;;;13.40;99.90;;;;;;4957515;28;20046;-67
2023/05/05 08:17:09;;;;;;;9.50;4.47;;;13.60;99.90;;;;;;4978177;28;20057;-67
2023/05/05 08:19:35;;;;;;;7.90;4.30;;;13.90;99.90;;;;;;4976727;28;20254;-67
2023/05/05 08:22:01;;;;;;;6.82;4.05;;;13.90;99.90;;;;;;4939927;28;20878;-67
2023/05/05 08:24:27;;;;;;;7.72;4.65;;;14.00;99.90;;;;;;4941753;28;20073;-68
2023/05/05 08:26:54;;;;;;;7.05;4.50;;;14.10;99.90;;;;;;4965723;28;20352;-67
2023/05/05 08:29:20;;;;;;;10.55;4.45;;;14.20;99.90;;;;;;4948296;28;20046;-67
2023/05/05 08:31:45;;;;;;;8.05;4.70;;;14.30;99.90;;;;;;4938380;28;20536;-67
2023/05/05 08:34:11;;;;;;;7.30;4.55;;;14.60;99.90;;;;;;4934905;28;20655;-67
2023/05/05 08:36:37;;;;;;;10.10;5.03;;;14.90;99.90;;;;;;4930711;28;20055;-67
2023/05/05 08:39:03;;;;;;;13.55;4.85;;;15.00;99.90;;;;;;4968662;28;20038;-66
2023/05/05 08:41:28;;;;;;;6.05;3.75;;;15.10;99.90;;;;;;4938225;28;20625;-66
2023/05/05 08:43:54;;;;;;;8.02;4.40;;;15.10;99.90;;;;;;4940564;28;20639;-66
2023/05/05 08:46:21;;;;;;;8.88;4.45;;;15.20;99.90;;;;;;4941335;28;20128;-66
2023/05/05 08:48:47;;;;;;;7.40;4.38;;;15.40;99.90;;;;;;4968558;28;20410;-66
2023/05/05 08:51:20;;;;;;;9.68;4.85;;;15.60;99.90;;;;;;4969296;28;20061;-66
2023/05/05 08:53:49;;;;;;;7.82;4.28;;;15.70;99.90;;;;;;4985996;28;20069;-66
2023/05/05 08:56:17;;;;;;;7.20;4.13;;;15.80;99.90;;;;;;4938524;28;20692;-66
2023/05/05 08:58:45;;;;;;;9.32;4.32;;;15.90;99.90;;;;;;4954052;28;20774;-66
2023/05/05 09:01:11;;;;;;;6.85;4.18;;;15.80;99.90;;;;;;4987834;28;20042;-66
2023/05/05 09:03:37;;;;;;;9.77;3.90;;;15.90;99.90;;;;;;4952391;28;20057;-66
2023/05/05 09:06:04;;;;;;;5.43;4.00;;;16.00;99.90;;;;;;4936786;28;20049;-66
2023/05/05 09:08:30;;;;;;;7.50;4.57;;;16.10;99.90;;;;;;4937247;28;20047;-66
2023/05/05 09:10:56;;;;;;;7.57;4.68;;;16.00;99.90;;;;;;4953031;28;20879;-66
2023/05/05 09:13:22;;;;;;;7.45;4.60;;;16.10;99.90;;;;;;4954985;28;20042;-67
2023/05/05 09:15:48;;;;;;;7.82;4.38;;;16.30;99.90;;;;;;4978018;28;20090;-67
2023/05/05 09:18:14;;;;;;;8.80;4.63;;;16.50;99.90;;;;;;4939579;28;20563;-66
2023/05/05 09:20:40;;;;;;;6.93;4.25;;;16.70;99.90;;;;;;4972170;28;20548;-65
2023/05/05 09:23:14;;;;;;;6.35;4.60;;;16.60;99.90;;;;;;4952561;28;20154;-65
2023/05/05 09:25:42;;;;;;;7.53;4.70;;;16.40;86.70;;;;;;4943709;28;20130;-66
2023/05/05 09:28:15;;;;;;;9.27;4.78;;;16.30;94.90;;;;;;4962023;28;20237;-66
2023/05/05 09:30:44;;;;;;;7.25;5.18;;;16.40;99.90;;;;;;4986508;28;20034;-65
2023/05/05 09:33:09;;;;;;;8.45;4.50;;;16.30;99.90;;;;;;4970219;28;20043;-65
2023/05/05 09:35:49;;;;;;;7.05;4.82;;;16.50;99.90;;;;;;4942268;28;20321;-66
2023/05/05 09:38:15;;;;;;;9.23;4.88;;;16.50;99.90;;;;;;4969732;28;20567;-65
2023/05/05 09:40:46;;;;;;;7.80;4.85;;;16.70;99.90;;;;;;4937702;28;20297;-66
2023/05/05 09:43:12;;;;;;;8.65;5.35;;;17.00;99.90;;;;;;4955066;28;20046;-65
2023/05/05 09:45:38;;;;;;;7.45;4.95;;;17.00;99.90;;;;;;4938836;28;20112;-66
2023/05/05 09:48:05;;;;;;;8.38;5.30;;;17.10;99.90;;;;;;4957386;28;20401;-65
2023/05/05 09:50:42;;;;;;;8.38;4.63;;;17.30;99.90;;;;;;4957160;28;20427;-66
2023/05/05 09:53:09;;;;;;;7.00;4.65;;;17.40;92.80;;;;;;4968662;28;20038;-65
2023/05/05 09:55:35;;;;;;;9.02;5.50;;;17.40;99.90;;;;;;4939233;28;20064;-65
2023/05/05 09:58:25;;;;;;;8.90;5.18;;;17.50;95.40;;;;;;4971449;28;20034;-65
2023/05/05 10:00:52;;;;;;;8.75;5.60;;;17.50;49.50;;;;;;4996147;28;20386;-66
2023/05/05 10:03:18;;;;;;;9.77;5.80;;;17.70;31.70;;;;;;4970040;28;20400;-66
2023/05/05 10:06:10;;;;;;;8.02;5.05;;;17.70;30.10;;;;;;4954138;28;20058;-65
2023/05/05 10:08:35;;;;;;;9.43;6.00;;;17.70;1.00;;;;;;4954523;28;20138;-65
2023/05/05 10:11:05;;;;;;;7.50;5.28;;;17.50;37.00;;;;;;4935797;28;20505;-66
2023/05/05 10:13:35;;;;;;;10.63;5.68;;;17.60;14.80;;;;;;4984057;28;20042;-65
2023/05/05 10:16:03;;;;;;;9.88;5.40;;;17.60;1.00;;;;;;4968263;28;20513;-66
2023/05/05 10:18:31;;;;;;;7.63;5.45;;;17.60;1.40;;;;;;4971154;28;20485;-66
2023/05/05 10:20:59;;;;;;;7.82;5.38;;;17.60;1.00;;;;;;4973647;28;20056;-65
2023/05/05 10:23:54;;;;;;;9.00;5.32;;;17.50;1.00;;;;;;4954624;28;20042;-67
2023/05/05 10:26:22;;;;;;;8.32;6.03;;;17.50;1.00;;;;;;4939425;28;20058;-66
2023/05/05 10:28:54;;;;;;;11.70;6.75;;;17.50;28.10;;;;;;4955845;28;20031;-66
2023/05/05 10:31:29;;;;;;;8.40;6.38;;;17.50;1.00;;;;;;4938743;28;20072;-69
2023/05/05 10:34:16;;;;;;;9.35;6.13;;;17.40;61.60;;;;;;4958272;28;20045;-68
2023/05/05 10:36:43;;;;;;;11.52;6.50;;;17.60;1.00;;;;;;4983275;28;20130;-66
2023/05/05 10:39:10;;;;;;;9.43;6.03;;;17.70;28.70;;;;;;4937298;28;20065;-68
2023/05/05 10:41:37;;;;;;;9.32;6.75;;;18.10;23.00;;;;;;4942874;28;20285;-67
2023/05/05 10:44:04;;;;;;;10.02;6.22;;;18.30;1.00;;;;;;4989103;28;20533;-67
2023/05/05 10:46:31;;;;;;;11.65;6.63;;;18.50;1.00;;;;;;4970122;28;20038;-68
2023/05/05 10:49:05;;;;;;;9.32;6.70;;;18.60;1.00;;;;;;4936806;28;20116;-67
2023/05/05 10:51:48;;;;;;;10.00;6.82;;;18.60;1.00;;;;;;4953352;28;20555;-67
2023/05/05 10:54:33;;;;;;;10.85;7.13;;;18.60;1.00;;;;;;4969617;28;20690;-68
2023/05/05 10:57:03;;;;;;;7.65;6.35;;;18.80;1.00;;;;;;4955181;28;20042;-67
2023/05/05 10:59:38;;;;;;;9.90;7.30;;;19.00;1.00;;;;;;4968933;28;20047;-67
2023/05/05 11:02:25;;;;;;;8.85;7.07;;;19.00;1.00;;;;;;4967631;28;20236;-69
2023/05/05 11:05:19;;;;;;;11.30;8.02;;;19.20;1.00;;;;;;4966074;28;20048;-66
2023/05/05 11:07:50;;;;;;;10.20;7.18;;;19.30;1.00;;;;;;4956123;28;20046;-67
2023/05/05 11:10:21;;;;;;;8.60;7.50;;;19.00;99.90;;;;;;4957147;28;20046;-67
2023/05/05 11:13:01;;;;;;;9.00;7.72;;;18.50;1.00;;;;;;4957099;28;20456;-67
2023/05/05 11:15:27;;;;;;;11.20;7.78;;;18.30;1.00;;;;;;4989447;28;20046;-67
2023/05/05 11:17:54;;;;;;;9.48;7.88;;;18.70;1.00;;;;;;4974047;28;20135;-67
2023/05/05 11:20:35;;;;;;;9.27;8.00;;;19.20;1.00;;;;;;4990228;28;20536;-67
2023/05/05 11:23:01;;;;;;;8.93;7.10;;;19.60;99.90;;;;;;4973713;28;20112;-66
2023/05/05 11:25:36;;;;;;;9.13;6.95;;;19.70;99.90;;;;;;4989456;28;20046;-66
2023/05/05 11:28:15;;;;;;;11.30;7.07;;;19.70;99.90;;;;;;4974373;28;20049;-66
2023/05/05 11:30:57;;;;;;;10.57;8.82;;;19.50;99.90;;;;;;5006035;28;20066;-66
2023/05/05 11:33:23;;;;;;;9.73;8.25;;;19.40;99.90;;;;;;4989804;28;20337;-66
2023/05/05 11:35:56;;;;;;;10.10;8.40;;;19.50;99.90;;;;;;4989554;28;20322;-66
2023/05/05 11:38:28;;;;;;;10.07;8.38;;;19.60;99.90;;;;;;4990252;28;20492;-66
2023/05/05 11:41:04;;;;;;;10.23;8.55;;;20.00;99.90;;;;;;4989980;28;20054;-66
2023/05/05 11:43:30;;;;;;;9.55;8.52;;;19.90;99.90;;;;;;4989298;28;20042;-66
2023/05/05 11:46:12;;;;;;;11.55;8.75;;;19.90;99.90;;;;;;5006384;28;20046;-66
2023/05/05 11:48:48;;;;;;;10.38;9.20;;;20.00;99.90;;;;;;4989775;28;20570;-66
2023/05/05 11:51:16;;;;;;;14.27;9.55;;;20.00;99.90;;;;;;4972377;28;20341;-67
2023/05/05 11:53:47;;;;;;;13.02;9.13;;;20.10;99.90;;;;;;5005688;28;20542;-66
2023/05/05 11:56:21;;;;;;;10.98;9.18;;;19.80;99.90;;;;;;4990461;28;20053;-66
2023/05/05 11:59:11;;;;;;;11.55;10.10;;;19.40;99.90;;;;;;5005646;28;20054;-66
2023/05/05 12:01:40;;;;;;;15.45;10.23;;;18.80;99.90;;;;;;4973190;28;20050;-66
2023/05/05 12:04:10;;;;;;;12.75;10.52;;;18.50;99.90;;;;;;4957190;28;20050;-67
2023/05/05 12:06:36;;;;;;;12.68;10.88;;;18.40;1.00;;;;;;4957133;28;20042;-66
2023/05/05 12:09:03;;;;;;;15.85;11.40;;;18.30;1.00;;;;;;4956401;28;20529;-66
2023/05/05 12:11:28;;;;;;;13.38;10.95;;;18.50;1.00;;;;;;4956412;28;20232;-67
2023/05/05 12:14:09;;;;;;;12.60;11.30;;;18.70;1.00;;;;;;4988802;28;20603;-66
2023/05/05 12:16:35;;;;;;;13.43;11.40;;;19.10;1.00;;;;;;4973269;28;20058;-65
2023/05/05 12:19:07;;;;;;;13.43;11.50;;;19.30;1.00;;;;;;4972366;28;20054;-67
2023/05/05 12:21:34;;;;;;;14.00;11.40;;;19.70;1.00;;;;;;4988884;28;20302;-66
2023/05/05 12:24:00;;;;;;;12.23;11.02;;;19.80;1.00;;;;;;4954159;28;20047;-67
2023/05/05 12:26:30;;;;;;;13.32;12.02;;;19.80;99.90;;;;;;4954665;28;20072;-66
2023/05/05 12:28:57;;;;;;;14.02;11.25;;;19.90;99.90;;;;;;4938638;28;20363;-66
2023/05/05 12:31:38;;;;;;;12.93;11.52;;;19.70;99.90;;;;;;4971382;28;20373;-66
2023/05/05 12:34:05;;;;;;;12.25;10.95;;;19.60;99.90;;;;;;4956364;28;20552;-67
2023/05/05 12:36:35;;;;;;;13.13;11.23;;;19.50;99.90;;;;;;4972012;28;20038;-66
2023/05/05 12:39:03;;;;;;;15.63;11.80;;;19.40;99.90;;;;;;4954265;28;20046;-67
2023/05/05 12:41:30;;;;;;;15.00;12.13;;;19.20;1.00;;;;;;4975111;28;20057;-66
2023/05/05 12:44:00;;;;;;;13.93;12.00;;;19.20;1.00;;;;;;4965777;28;20205;-66
2023/05/05 12:46:28;;;;;;;14.68;12.40;;;19.40;1.00;;;;;;4984287;28;20551;-66
2023/05/05 12:49:06;;;;;;;13.20;10.98;;;19.50;1.00;;;;;;4951975;28;20054;-68
2023/05/05 12:51:52;;;;;;;14.13;12.45;;;19.50;1.00;;;;;;4967612;28;21143;-65
2023/05/05 12:54:19;;;;;;;14.82;12.90;;;19.30;1.00;;;;;;4999675;28;20141;-66